Time;durP1;ratioP1;P1;durP2;ratioP2;P2;SDS_P1;SDS_P2;PMS_P1;PMS_P2;Temp;Humidity;BMP_temperature;BMP_pressure;BME280_temperature;BME280_humidity;BME280_pressure;Samples;Min_cycle;Max_cycle;Signal;HPM_P1;HPM_P2
2022/11/06 00:00:23;;;;;;;;;;;6.80;99.90;;;;;;5043711;28;19925;-94
2022/11/06 00:02:58;;;;;;;;;;;6.70;99.90;;;;;;5045202;28;19980;-93
2022/11/06 00:08:43;;;;;;;;;;;6.70;99.90;;;;;;5046198;28;19928;-94
2022/11/06 00:11:13;;;;;;;;;;;6.70;99.90;;;;;;5046441;28;19929;-94
2022/11/06 00:13:46;;;;;;;;;;;6.70;99.90;;;;;;5046730;28;20245;-95
2022/11/06 00:16:25;;;;;;;;;;;6.70;99.90;;;;;;5048217;28;19993;-94
2022/11/06 00:18:54;;;;;;;;;;;6.70;99.90;;;;;;5042151;28;20060;-93
2022/11/06 00:21:22;;;;;;;;;;;6.70;99.90;;;;;;5038553;28;19929;-94
2022/11/06 00:24:04;;;;;;;;;;;6.80;99.90;;;;;;5044079;28;20360;-95
2022/11/06 00:26:32;;;;;;;;;;;6.70;99.90;;;;;;5043789;28;20297;-94
2022/11/06 00:29:04;;;;;;;;;;;6.70;99.90;;;;;;5061554;28;19929;-93
2022/11/06 00:31:42;;;;;;;;;;;6.70;99.90;;;;;;5060906;28;19932;-93
2022/11/06 00:34:13;;;;;;;;;;;6.70;99.90;;;;;;5040305;28;19982;-93
2022/11/06 00:36:40;;;;;;;;;;;6.70;99.90;;;;;;5047875;28;20000;-95
2022/11/06 00:39:09;;;;;;;;;;;6.60;99.90;;;;;;5061619;28;19968;-93
2022/11/06 00:41:37;;;;;;;;;;;6.60;99.90;;;;;;5040977;28;19925;-94
2022/11/06 00:44:05;;;;;;;;;;;6.60;99.90;;;;;;5041643;28;19926;-95
2022/11/06 00:46:32;;;;;;;;;;;6.60;99.90;;;;;;5049033;28;20296;-94
2022/11/06 00:49:00;;;;;;;;;;;6.60;99.90;;;;;;5041678;28;19933;-94
2022/11/06 00:51:32;;;;;;;;;;;6.60;99.90;;;;;;5061521;28;19920;-94
2022/11/06 00:54:00;;;;;;;;;;;6.60;99.90;;;;;;5057820;28;19925;-93
2022/11/06 00:56:33;;;;;;;;;;;6.60;99.90;;;;;;5041475;28;19993;-93
2022/11/06 00:59:02;;;;;;;;;;;6.60;99.90;;;;;;5042891;28;19930;-95
2022/11/06 01:01:32;;;;;;;;;;;6.60;99.90;;;;;;5055577;28;19989;-94
2022/11/06 01:04:08;;;;;;;;;;;6.50;99.90;;;;;;5042440;28;20039;-94
2022/11/06 01:06:36;;;;;;;;;;;6.50;99.90;;;;;;5038876;28;20284;-93
2022/11/06 01:09:04;;;;;;;;;;;6.50;99.90;;;;;;5041327;28;19984;-94
2022/11/06 01:11:33;;;;;;;;;;;6.50;99.90;;;;;;5043377;28;20017;-94
2022/11/06 01:14:01;;;;;;;;;;;6.50;99.90;;;;;;5036839;28;19925;-93
2022/11/06 01:16:29;;;;;;;;;;;6.50;99.90;;;;;;5049674;28;19951;-94
2022/11/06 01:18:57;;;;;;;;;;;6.60;99.90;;;;;;5038469;28;19988;-94
2022/11/06 01:21:25;;;;;;;;;;;6.50;99.90;;;;;;5055851;28;19980;-94
2022/11/06 01:23:54;;;;;;;;;;;6.60;99.90;;;;;;5042504;28;19993;-94
2022/11/06 01:26:27;;;;;;;;;;;6.50;99.90;;;;;;5039015;28;19925;-94
2022/11/06 01:28:59;;;;;;;;;;;6.50;99.90;;;;;;5042168;28;19972;-93
2022/11/06 01:31:29;;;;;;;;;;;6.40;99.90;;;;;;5043419;28;20028;-93
2022/11/06 01:34:00;;;;;;;;;;;6.50;99.90;;;;;;5035596;28;19948;-95
2022/11/06 01:36:30;;;;;;;;;;;6.50;99.90;;;;;;5037767;28;19934;-93
2022/11/06 01:39:12;;;;;;;;;;;;;;;;;;5043648;28;19933;-94
2022/11/06 01:41:42;;;;;;;;;;;6.40;99.90;;;;;;5039714;28;19951;-94
2022/11/06 01:54:20;;;;;;;;;;;6.40;99.90;;;;;;5040213;28;19920;-93
2022/11/06 01:56:56;;;;;;;;;;;6.40;99.90;;;;;;5036763;28;19924;-94
2022/11/06 01:59:26;;;;;;;;;;;6.40;99.90;;;;;;5045850;28;19930;-93
2022/11/06 02:01:55;;;;;;;;;;;6.30;99.90;;;;;;5039681;28;19933;-94
2022/11/06 02:08:23;;;;;;;;;;;6.30;99.90;;;;;;5037685;28;19925;-94
2022/11/06 02:10:55;;;;;;;;;;;6.30;99.90;;;;;;5037524;28;19925;-94
2022/11/06 02:13:34;;;;;;;;;;;6.30;99.90;;;;;;5041267;28;19987;-93
2022/11/06 02:25:22;;;;;;;;;;;6.40;99.90;;;;;;5003976;28;19930;-74
2022/11/06 02:27:51;;;;;;;;;;;6.40;99.90;;;;;;4999590;28;19979;-74
2022/11/06 02:30:18;;;;;;;;;;;6.30;99.90;;;;;;4998676;28;19931;-74
2022/11/06 02:32:48;;;;;;;;;;;6.20;99.90;;;;;;4997776;28;20020;-74
2022/11/06 02:35:17;;;;;;;;;;;6.20;99.90;;;;;;5005900;28;19925;-74
2022/11/06 02:37:46;;;;;;;;;;;6.10;99.90;;;;;;5002631;28;19933;-74
2022/11/06 02:40:14;;;;;;;;;;;6.10;99.90;;;;;;4998626;28;19939;-74
2022/11/06 02:42:43;;;;;;;;;;;6.10;99.90;;;;;;5004294;28;19968;-74
2022/11/06 02:45:12;;;;;;;;;;;6.00;99.90;;;;;;4999750;28;19925;-74
2022/11/06 02:47:40;;;;;;;;;;;6.00;99.90;;;;;;5001553;28;19933;-74
2022/11/06 02:50:09;;;;;;;;;;;6.10;99.90;;;;;;5001661;28;19930;-74
2022/11/06 02:52:39;;;;;;;;;;;6.00;99.90;;;;;;5002057;28;19932;-73
2022/11/06 02:55:09;;;;;;;;;;;6.10;99.90;;;;;;4998511;28;20076;-74
2022/11/06 02:57:38;;;;;;;;;;;6.00;99.90;;;;;;5003161;28;19925;-73
2022/11/06 03:00:07;;;;;;;;;;;6.10;99.90;;;;;;5003135;28;19932;-74
2022/11/06 03:02:37;;;;;;;;;;;6.10;99.90;;;;;;4996929;28;19976;-74
2022/11/06 03:05:06;;;;;;;;;;;6.10;99.90;;;;;;5001506;28;20023;-74
2022/11/06 03:07:36;;;;;;;;;;;6.10;99.90;;;;;;4999616;28;19952;-74
2022/11/06 03:10:03;;;;;;;;;;;6.10;99.90;;;;;;5000351;28;19976;-74
2022/11/06 03:12:31;;;;;;;;;;;6.10;99.90;;;;;;5008437;28;19937;-74
2022/11/06 03:15:00;;;;;;;;;;;6.10;99.90;;;;;;5003330;28;19925;-74
2022/11/06 03:17:31;;;;;;;;;;;6.10;99.90;;;;;;5004553;28;22517;-74
2022/11/06 03:20:00;;;;;;;;;;;6.00;99.90;;;;;;5008761;28;20379;-74
2022/11/06 03:22:31;;;;;;;;;;;6.00;99.90;;;;;;5000335;28;19934;-74
2022/11/06 03:24:59;;;;;;;;;;;6.00;99.90;;;;;;5000985;28;19926;-74
2022/11/06 03:27:29;;;;;;;;;;;6.00;99.90;;;;;;5001367;28;19995;-74
2022/11/06 03:29:58;;;;;;;;;;;5.90;99.90;;;;;;4998838;28;20041;-74
2022/11/06 03:32:27;;;;;;;;;;;6.00;99.90;;;;;;4999306;28;20410;-74
2022/11/06 03:34:58;;;;;;;;;;;6.00;99.90;;;;;;5010923;28;20023;-74
2022/11/06 03:37:27;;;;;;;;;;;6.00;99.90;;;;;;5005549;28;19972;-74
2022/11/06 03:39:55;;;;;;;;;;;5.90;99.90;;;;;;5011201;28;19995;-74
2022/11/06 03:42:23;;;;;;;;;;;5.90;99.90;;;;;;5004735;28;19941;-74
2022/11/06 03:44:52;;;;;;;;;;;5.90;99.90;;;;;;5015772;28;20399;-74
2022/11/06 03:47:21;;;;;;;;;;;5.90;99.90;;;;;;5003251;28;19926;-74
2022/11/06 03:49:50;;;;;;;;;;;5.90;99.90;;;;;;5011152;28;20009;-74
2022/11/06 03:52:19;;;;;;;;;;;5.90;99.90;;;;;;5004068;28;19968;-74
2022/11/06 03:54:49;;;;;;;;;;;5.90;99.90;;;;;;5005489;28;19925;-73
2022/11/06 03:57:19;;;;;;;;;;;5.90;99.90;;;;;;5006661;28;20008;-74
2022/11/06 03:59:50;;;;;;;;;;;5.90;99.90;;;;;;5003269;28;19961;-74
2022/11/06 04:02:18;;;;;;;;;;;5.90;99.90;;;;;;5002391;28;20384;-74
2022/11/06 04:04:47;;;;;;;;;;;5.90;99.90;;;;;;5004356;28;19933;-74
2022/11/06 04:07:15;;;;;;;;;;;5.90;99.90;;;;;;5005743;28;19957;-74
2022/11/06 04:15:17;;;;;;;;;;;6.00;99.90;;;;;;4999449;28;19926;-74
2022/11/06 04:17:44;;;;;;;;;;;6.00;99.90;;;;;;5008666;28;19963;-74
2022/11/06 04:21:20;;;;;;;;;;;6.00;99.90;;;;;;5014599;28;20440;-75
2022/11/06 04:23:04;;;;;;;;;;;6.00;99.90;;;;;;5012107;28;20011;-74
2022/11/06 04:28:24;;;;;;;;;;;6.00;99.90;;;;;;5018470;28;20390;-74
2022/11/06 04:30:55;;;;;;;;;;;6.00;99.90;;;;;;5005686;28;19972;-74
2022/11/06 04:33:25;;;;;;;;;;;6.00;99.90;;;;;;5006312;28;20029;-74
2022/11/06 04:35:57;;;;;;;;;;;6.00;99.90;;;;;;5019525;28;19961;-74
2022/11/06 04:38:26;;;;;;;;;;;6.10;99.90;;;;;;5005653;28;20475;-74
2022/11/06 04:40:58;;;;;;;;;;;6.00;99.90;;;;;;5005878;28;20033;-74
2022/11/06 04:43:38;;;;;;;;;;;6.00;99.90;;;;;;5005384;28;20352;-74
2022/11/06 04:46:06;;;;;;;;;;;6.00;99.90;;;;;;4998115;28;20040;-74
2022/11/06 04:48:33;;;;;;;;;;;6.00;99.90;;;;;;5011391;28;20028;-74
2022/11/06 04:51:01;;;;;;;;;;;6.00;99.90;;;;;;5004312;28;20319;-74
2022/11/06 04:53:29;;;;;;;;;;;6.00;99.90;;;;;;5002688;28;19929;-74
2022/11/06 04:56:00;;;;;;;;;;;6.00;99.90;;;;;;5007031;28;19925;-74
2022/11/06 04:58:28;;;;;;;;;;;5.90;99.90;;;;;;5006248;28;20431;-74
2022/11/06 05:00:55;;;;;;;;;;;5.90;99.90;;;;;;5024408;28;19930;-74
2022/11/06 05:03:22;;;;;;;;;;;5.90;99.90;;;;;;5000904;28;20029;-74
2022/11/06 05:05:49;;;;;;;;;;;5.90;99.90;;;;;;5009167;28;19934;-73
2022/11/06 05:08:19;;;;;;;;;;;5.90;99.90;;;;;;5005908;28;20464;-74
2022/11/06 05:10:46;;;;;;;;;;;5.80;99.90;;;;;;5003635;28;19925;-73
2022/11/06 05:13:13;;;;;;;;;;;5.90;99.90;;;;;;5006908;28;20047;-74
2022/11/06 05:15:41;;;;;;;;;;;5.80;99.90;;;;;;5009170;28;19997;-75
2022/11/06 05:18:08;;;;;;;;;;;5.90;99.90;;;;;;5018207;28;19925;-75
2022/11/06 05:20:35;;;;;;;;;;;5.90;99.90;;;;;;5008511;28;20400;-74
2022/11/06 05:23:01;;;;;;;;;;;5.90;99.90;;;;;;5003366;28;20003;-74
2022/11/06 05:25:29;;;;;;;;;;;5.90;99.90;;;;;;5006889;28;20303;-74
2022/11/06 05:27:56;;;;;;;;;;;5.90;99.90;;;;;;5010685;28;19954;-74
2022/11/06 05:30:23;;;;;;;;;;;5.90;99.90;;;;;;5007188;28;19930;-74
2022/11/06 05:32:51;;;;;;;;;;;5.90;99.90;;;;;;5003602;28;19932;-74
2022/11/06 05:35:19;;;;;;;;;;;5.90;99.90;;;;;;5012855;28;19925;-73
2022/11/06 05:37:46;;;;;;;;;;;5.90;99.90;;;;;;5006232;28;19926;-74
2022/11/06 05:40:13;;;;;;;;;;;5.90;99.90;;;;;;5005564;28;20383;-75
2022/11/06 05:42:40;;;;;;;;;;;5.90;99.90;;;;;;5009542;28;20024;-74
2022/11/06 05:45:07;;;;;;;;;;;6.00;99.90;;;;;;5009333;28;19951;-74
2022/11/06 05:47:34;;;;;;;;;;;6.00;99.90;;;;;;5001170;28;20406;-74
2022/11/06 05:50:06;;;;;;;;;;;5.90;99.90;;;;;;5004042;28;19957;-74
2022/11/06 05:52:34;;;;;;;;;;;6.00;99.90;;;;;;5005975;28;19968;-74
2022/11/06 05:55:01;;;;;;;;;;;5.90;99.90;;;;;;5000243;28;20024;-74
2022/11/06 05:57:28;;;;;;;;;;;5.90;99.90;;;;;;5000745;28;20468;-74
2022/11/06 05:59:55;;;;;;;;;;;6.00;99.90;;;;;;4976694;28;20091;-74
2022/11/06 06:02:21;;;;;;;;;;;6.00;99.90;;;;;;5001731;28;19961;-74
2022/11/06 06:04:48;;;;;;;;;;;5.90;99.90;;;;;;5003258;28;19929;-74
2022/11/06 06:07:16;;;;;;;;;;;5.90;99.90;;;;;;4999521;28;19926;-74
2022/11/06 06:09:43;;;;;;;;;;;5.90;99.90;;;;;;5007056;28;19929;-74
2022/11/06 06:12:10;;;;;;;;;;;5.80;99.90;;;;;;4999111;28;20608;-75
2022/11/06 06:14:37;;;;;;;;;;;5.90;99.90;;;;;;5009977;28;19929;-75
2022/11/06 06:17:04;;;;;;;;;;;5.90;99.90;;;;;;5003858;28;19964;-74
2022/11/06 06:19:31;;;;;;;;;;;5.80;99.90;;;;;;5018801;28;19926;-74
2022/11/06 06:21:58;;;;;;;;;;;5.80;99.90;;;;;;5001849;28;20021;-74
2022/11/06 06:24:26;;;;;;;;;;;5.90;99.90;;;;;;5003900;28;20017;-75
2022/11/06 06:26:52;;;;;;;;;;;5.90;99.90;;;;;;5003853;28;19965;-74
2022/11/06 06:29:19;;;;;;;;;;;5.90;99.90;;;;;;5001757;28;19941;-74
2022/11/06 06:31:48;;;;;;;;;;;5.90;99.90;;;;;;5003839;28;19980;-74
2022/11/06 06:34:15;;;;;;;;;;;5.90;99.90;;;;;;5000542;28;19926;-74
2022/11/06 06:36:42;;;;;;;;;;;5.90;99.90;;;;;;5009422;28;20395;-73
2022/11/06 06:39:09;;;;;;;;;;;5.80;99.90;;;;;;4997175;28;20608;-73
2022/11/06 06:41:37;;;;;;;;;;;5.90;99.90;;;;;;4999634;28;20004;-74
2022/11/06 06:44:04;;;;;;;;;;;5.90;99.90;;;;;;5000763;28;19929;-73
2022/11/06 06:46:31;;;;;;;;;;;5.90;99.90;;;;;;4997446;28;20029;-73
2022/11/06 06:48:58;;;;;;;;;;;5.90;99.90;;;;;;5002341;28;19956;-74
2022/11/06 06:51:24;;;;;;;;;;;5.90;99.90;;;;;;5000967;28;19929;-74
2022/11/06 06:53:51;;;;;;;;;;;5.80;99.90;;;;;;4992488;28;19933;-74
2022/11/06 06:56:18;;;;;;;;;;;5.80;99.90;;;;;;4996149;28;20021;-75
2022/11/06 06:58:46;;;;;;;;;;;5.80;99.90;;;;;;4995283;28;19972;-73
2022/11/06 07:01:13;;;;;;;;;;;5.80;99.90;;;;;;4988611;28;19929;-74
2022/11/06 07:03:40;;;;;;;;;;;5.80;99.90;;;;;;4995231;28;20375;-73
2022/11/06 07:06:07;;;;;;;;;;;5.70;99.90;;;;;;4996312;28;20008;-72
2022/11/06 07:08:34;;;;;;;;;;;5.70;99.90;;;;;;4994974;28;19965;-73
2022/11/06 07:11:01;;;;;;;;;;;5.70;99.90;;;;;;4999090;28;20016;-73
2022/11/06 07:13:28;;;;;;;;;;;5.80;99.90;;;;;;4998298;28;20044;-73
2022/11/06 07:15:56;;;;;;;;;;;5.80;99.90;;;;;;4994887;28;20370;-73
2022/11/06 07:18:24;;;;;;;;;;;5.80;99.90;;;;;;5001495;28;20295;-74
2022/11/06 07:20:51;;;;;;;;;;;5.80;99.90;;;;;;4995627;28;19933;-73
2022/11/06 07:23:18;;;;;;;;;;;5.80;99.90;;;;;;4998858;28;20335;-73
2022/11/06 07:25:45;;;;;;;;;;;5.70;99.90;;;;;;4997215;28;19925;-73
2022/11/06 07:28:11;;;;;;;;;;;5.80;99.90;;;;;;5009761;28;19934;-73
2022/11/06 07:30:38;;;;;;;;;;;5.80;99.90;;;;;;4995759;28;19933;-73
2022/11/06 07:33:06;;;;;;;;;;;5.80;99.90;;;;;;4993892;28;19940;-74
2022/11/06 07:35:34;;;;;;;;;;;5.90;99.90;;;;;;4994448;28;20311;-73
2022/11/06 07:38:03;;;;;;;;;;;5.80;99.90;;;;;;4995743;28;19934;-73
2022/11/06 07:40:29;;;;;;;;;;;5.90;99.90;;;;;;4992242;28;20382;-73
2022/11/06 07:43:02;;;;;;;;;;;5.80;99.90;;;;;;4994052;28;19977;-73
2022/11/06 07:45:29;;;;;;;;;;;5.80;99.90;;;;;;4992675;28;20011;-73
2022/11/06 07:47:56;;;;;;;;;;;5.80;99.90;;;;;;4996630;28;19934;-73
2022/11/06 07:50:24;;;;;;;;;;;5.80;99.90;;;;;;5006889;28;19950;-73
2022/11/06 07:52:51;;;;;;;;;;;5.80;99.90;;;;;;5009095;28;19941;-73
2022/11/06 07:57:53;;;;;;;;;;;5.80;99.90;;;;;;5007848;28;19987;-74
2022/11/06 08:00:25;;;;;;;;;;;5.90;99.90;;;;;;5010987;28;19957;-75
2022/11/06 08:02:52;;;;;;;;;;;5.80;99.90;;;;;;5012853;28;20302;-75
2022/11/06 08:05:19;;;;;;;;;;;5.90;99.90;;;;;;5011977;28;19956;-75
2022/11/06 08:07:48;;;;;;;;;;;5.80;99.90;;;;;;5008899;28;20016;-75
2022/11/06 08:10:15;;;;;;;;;;;5.90;99.90;;;;;;5015631;28;19925;-75
2022/11/06 08:12:41;;;;;;;;;;;5.80;99.90;;;;;;5032312;28;19961;-74
2022/11/06 08:15:09;;;;;;;;;;;5.80;99.90;;;;;;5008688;28;19983;-75
2022/11/06 08:17:36;;;;;;;;;;;5.80;99.90;;;;;;5011424;28;19926;-76
2022/11/06 08:20:03;;;;;;;;;;;5.80;99.90;;;;;;5012400;28;20445;-77
2022/11/06 08:22:30;;;;;;;;;;;5.90;99.90;;;;;;5013477;28;19936;-76
2022/11/06 08:24:59;;;;;;;;;;;5.90;99.90;;;;;;5012658;28;19936;-76
2022/11/06 08:27:26;;;;;;;;;;;5.90;99.90;;;;;;5007275;28;19947;-75
2022/11/06 08:29:52;;;;;;;;;;;5.90;99.90;;;;;;5002829;28;19929;-76
2022/11/06 08:32:19;;;;;;;;;;;5.90;99.90;;;;;;5003495;28;20530;-75
2022/11/06 08:34:46;;;;;;;;;;;6.00;99.90;;;;;;5029647;28;19932;-75
2022/11/06 08:37:13;;;;;;;;;;;5.90;99.90;;;;;;5015164;28;19925;-75
2022/11/06 08:39:40;;;;;;;;;;;5.90;99.90;;;;;;5012565;28;20023;-76
2022/11/06 08:42:08;;;;;;;;;;;5.90;99.90;;;;;;5031657;28;19929;-76
2022/11/06 08:44:35;;;;;;;;;;;5.90;99.90;;;;;;5016390;28;19957;-76
2022/11/06 08:47:02;;;;;;;;;;;5.90;99.90;;;;;;5024193;28;19925;-76
2022/11/06 08:49:28;;;;;;;;;;;5.90;99.90;;;;;;5027276;28;20078;-75
2022/11/06 08:51:55;;;;;;;;;;;5.90;99.90;;;;;;5017119;28;19944;-75
2022/11/06 08:54:22;;;;;;;;;;;6.00;99.90;;;;;;5016832;28;20427;-77
2022/11/06 08:56:49;;;;;;;;;;;5.90;99.90;;;;;;5025885;28;19925;-86
2022/11/06 08:59:17;;;;;;;;;;;5.90;99.90;;;;;;5038170;28;19975;-77
2022/11/06 09:01:44;;;;;;;;;;;6.00;99.90;;;;;;5019873;28;20326;-83
2022/11/06 09:04:11;;;;;;;;;;;6.00;99.90;;;;;;5021159;28;20327;-79
2022/11/06 09:06:38;;;;;;;;;;;6.00;99.90;;;;;;5013353;28;19937;-74
2022/11/06 09:09:04;;;;;;;;;;;6.00;99.90;;;;;;5034750;28;19932;-74
2022/11/06 09:11:32;;;;;;;;;;;6.00;99.90;;;;;;5010259;28;20332;-74
2022/11/06 09:13:59;;;;;;;;;;;6.00;99.90;;;;;;5014338;28;19956;-74
2022/11/06 09:16:27;;;;;;;;;;;6.00;99.90;;;;;;5036100;28;19929;-74
2022/11/06 09:18:54;;;;;;;;;;;6.00;99.90;;;;;;5015098;28;20012;-74
2022/11/06 09:21:21;;;;;;;;;;;6.00;99.90;;;;;;5010862;28;19925;-74
2022/11/06 09:23:48;;;;;;;;;;;6.00;99.90;;;;;;5019691;28;19972;-74
2022/11/06 09:26:16;;;;;;;;;;;6.00;99.90;;;;;;5015577;28;19933;-74
2022/11/06 09:28:42;;;;;;;;;;;6.00;99.90;;;;;;5022608;28;19932;-74
2022/11/06 09:31:09;;;;;;;;;;;6.10;99.90;;;;;;5016952;28;20748;-74
2022/11/06 09:33:37;;;;;;;;;;;6.00;99.90;;;;;;5015546;28;20035;-74
2022/11/06 09:36:05;;;;;;;;;;;6.00;99.90;;;;;;5021587;28;19960;-74
2022/11/06 09:38:32;;;;;;;;;;;6.00;99.90;;;;;;5009948;28;19925;-74
2022/11/06 09:40:59;;;;;;;;;;;6.10;99.90;;;;;;5012046;28;19925;-74
2022/11/06 09:43:31;;;;;;;;;;;6.10;99.90;;;;;;5020697;28;19932;-74
2022/11/06 09:46:01;;;;;;;;;;;6.10;99.90;;;;;;5015417;28;20469;-74
2022/11/06 09:48:30;;;;;;;;;;;6.10;99.90;;;;;;5015337;28;20011;-74
2022/11/06 09:51:01;;;;;;;;;;;6.10;99.90;;;;;;5018573;28;20460;-74
2022/11/06 09:53:31;;;;;;;;;;;6.20;99.90;;;;;;5013443;28;19933;-74
2022/11/06 09:55:59;;;;;;;;;;;6.20;99.90;;;;;;5009524;28;20408;-74
2022/11/06 09:58:28;;;;;;;;;;;6.20;99.90;;;;;;5018099;28;20066;-75
2022/11/06 10:00:55;;;;;;;;;;;6.20;99.90;;;;;;5020640;28;20410;-74
2022/11/06 10:03:25;;;;;;;;;;;6.20;99.90;;;;;;5017466;28;19936;-74
2022/11/06 10:05:52;;;;;;;;;;;6.20;99.90;;;;;;5015172;28;19933;-74
2022/11/06 10:08:22;;;;;;;;;;;6.30;99.90;;;;;;5019265;28;20437;-74
2022/11/06 10:10:56;;;;;;;;;;;6.20;99.90;;;;;;5010196;28;19987;-75
2022/11/06 10:13:33;;;;;;;;;;;6.30;99.90;;;;;;5007899;28;19932;-74
2022/11/06 10:16:04;;;;;;;;;;;6.30;99.90;;;;;;5011545;28;20283;-74
2022/11/06 10:18:35;;;;;;;;;;;6.30;99.90;;;;;;5013326;28;19932;-74
2022/11/06 10:21:05;;;;;;;;;;;6.30;99.90;;;;;;5012976;28;20028;-75
2022/11/06 10:23:37;;;;;;;;;;;6.30;99.90;;;;;;5032611;28;19925;-75
2022/11/06 10:26:07;;;;;;;;;;;6.30;99.90;;;;;;5016884;28;19933;-75
2022/11/06 10:28:52;;;;;;;;;;;6.30;99.90;;;;;;5018446;28;19972;-76
2022/11/06 10:31:24;;;;;;;;;;;6.30;99.90;;;;;;5017345;28;19940;-74
2022/11/06 10:33:55;;;;;;;;;;;6.30;99.90;;;;;;5011676;28;19965;-74
2022/11/06 10:36:23;;;;;;;;;;;6.40;99.90;;;;;;5036161;28;19929;-74
2022/11/06 10:38:52;;;;;;;;;;;6.40;99.90;;;;;;5013811;28;20011;-74
2022/11/06 10:41:21;;;;;;;;;;;6.40;99.90;;;;;;5014619;28;19988;-73
2022/11/06 10:43:51;;;;;;;;;;;6.40;99.90;;;;;;5017506;28;19937;-73
2022/11/06 10:46:20;;;;;;;;;;;6.40;99.90;;;;;;5016771;28;19960;-72
2022/11/06 10:48:49;;;;;;;;;;;6.40;99.90;;;;;;5032635;28;19925;-72
2022/11/06 10:51:22;;;;;;;;;;;6.50;99.90;;;;;;5013781;28;20035;-72
2022/11/06 10:53:57;;;;;;;;;;;6.40;99.90;;;;;;5011243;28;19979;-73
2022/11/06 10:56:39;;;;;;;;;;;6.50;99.90;;;;;;5018947;28;20326;-72
2022/11/06 10:59:07;;;;;;;;;;;6.50;99.90;;;;;;5015414;28;19971;-72
2022/11/06 11:01:34;;;;;;;;;;;6.50;99.90;;;;;;5013620;28;20410;-72
2022/11/06 11:04:01;;;;;;;;;;;6.50;99.90;;;;;;5013762;28;19929;-72
2022/11/06 11:06:28;;;;;;;;;;;6.50;99.90;;;;;;5019793;28;19972;-72
2022/11/06 11:08:56;;;;;;;;;;;6.50;99.90;;;;;;5013442;28;19925;-72
2022/11/06 11:11:24;;;;;;;;;;;6.50;99.90;;;;;;5007794;28;19925;-73
2022/11/06 11:14:11;;;;;;;;;;;6.50;99.90;;;;;;5011688;28;19926;-72
2022/11/06 11:16:40;;;;;;;;;;;6.60;99.90;;;;;;5014166;28;19938;-72
2022/11/06 11:19:15;;;;;;;;;;;6.60;99.90;;;;;;5031931;28;21767;-73
2022/11/06 11:21:52;;;;;;;;;;;6.60;99.90;;;;;;5015974;28;19997;-72
2022/11/06 11:24:20;;;;;;;;;;;6.60;99.90;;;;;;5017104;28;20358;-72
2022/11/06 11:26:48;;;;;;;;;;;6.60;99.90;;;;;;5009956;28;19929;-72
2022/11/06 11:29:17;;;;;;;;;;;6.70;99.90;;;;;;5017883;28;19944;-72
2022/11/06 11:31:46;;;;;;;;;;;6.70;99.90;;;;;;5008908;28;20387;-73
2022/11/06 11:34:17;;;;;;;;;;;6.70;99.90;;;;;;5036376;28;20407;-73
2022/11/06 11:36:47;;;;;;;;;;;6.70;99.90;;;;;;5014838;28;20040;-73
2022/11/06 11:39:16;;;;;;;;;;;6.70;99.90;;;;;;5018595;28;19925;-73
2022/11/06 11:41:44;;;;;;;;;;;6.70;99.90;;;;;;5032649;28;19932;-73
2022/11/06 11:44:14;;;;;;;;;;;6.70;99.90;;;;;;5031019;28;19925;-73
2022/11/06 11:46:46;;;;;;;;;;;6.70;99.90;;;;;;5011482;28;20392;-72
2022/11/06 11:49:25;;;;;;;;;;;6.70;99.90;;;;;;5014025;28;19925;-72
2022/11/06 11:51:52;;;;;;;;;;;6.80;99.90;;;;;;5020500;28;19932;-73
2022/11/06 11:54:22;;;;;;;;;;;6.80;99.90;;;;;;5016651;28;19933;-73
2022/11/06 11:56:52;;;;;;;;;;;6.80;99.90;;;;;;5016389;28;20464;-73
2022/11/06 11:59:20;;;;;;;;;;;6.80;99.90;;;;;;5017625;28;19929;-73
2022/11/06 12:01:48;;;;;;;;;;;6.80;99.90;;;;;;5019311;28;19929;-73
2022/11/06 12:04:21;;;;;;;;;;;6.80;99.90;;;;;;5012242;28;19936;-73
2022/11/06 12:06:58;;;;;;;;;;;6.80;99.90;;;;;;5017953;28;20341;-73
2022/11/06 12:09:26;;;;;;;;;;;6.90;99.90;;;;;;5015882;28;19968;-73
2022/11/06 12:11:59;;;;;;;;;;;6.90;99.90;;;;;;5018627;28;19929;-72
2022/11/06 12:14:27;;;;;;;;;;;6.90;99.90;;;;;;5016035;28;19934;-73
2022/11/06 12:16:56;;;;;;;;;;;6.90;99.90;;;;;;5023002;28;20056;-73
2022/11/06 12:19:24;;;;;;;;;;;6.90;99.90;;;;;;5020908;28;19925;-73
2022/11/06 12:21:52;;;;;;;;;;;6.90;99.90;;;;;;5013582;28;20006;-73
2022/11/06 12:24:20;;;;;;;;;;;6.90;99.90;;;;;;5015956;28;19976;-73
2022/11/06 12:26:51;;;;;;;;;;;7.00;99.90;;;;;;5015982;28;19925;-73
2022/11/06 12:29:22;;;;;;;;;;;7.00;99.90;;;;;;5018022;28;19925;-73
2022/11/06 12:31:52;;;;;;;;;;;7.00;99.90;;;;;;5035085;28;19976;-73
2022/11/06 12:34:21;;;;;;;;;;;7.00;99.90;;;;;;5032943;28;19936;-72
2022/11/06 12:36:52;;;;;;;;;;;7.00;99.90;;;;;;5019764;28;19925;-72
2022/11/06 12:39:23;;;;;;;;;;;7.00;99.90;;;;;;5012476;28;20019;-73
2022/11/06 12:41:50;;;;;;;;;;;7.00;99.90;;;;;;5031896;28;20398;-73
2022/11/06 12:44:17;;;;;;;;;;;7.00;99.90;;;;;;5017333;28;20489;-73
2022/11/06 12:46:48;;;;;;;;;;;7.00;99.90;;;;;;5039112;28;20309;-73
2022/11/06 12:49:36;;;;;;;;;;;7.10;99.90;;;;;;5016886;28;19980;-73
2022/11/06 12:52:12;;;;;;;;;;;7.00;99.90;;;;;;5015210;28;19934;-73
2022/11/06 12:54:43;;;;;;;;;;;7.10;99.90;;;;;;5016301;28;19932;-73
2022/11/06 12:57:17;;;;;;;;;;;7.10;99.90;;;;;;5015885;28;19945;-73
2022/11/06 12:59:48;;;;;;;;;;;7.10;99.90;;;;;;5020676;28;20016;-72
2022/11/06 13:02:21;;;;;;;;;;;7.10;99.90;;;;;;5020484;28;20014;-72
2022/11/06 13:04:52;;;;;;;;;;;7.10;99.90;;;;;;5020514;28;19925;-73
2022/11/06 13:07:43;;;;;;;;;;;7.20;99.90;;;;;;5014754;28;20451;-73
2022/11/06 13:10:20;;;;;;;;;;;7.10;99.90;;;;;;5019684;28;19994;-73
2022/11/06 13:12:55;;;;;;;;;;;7.20;99.90;;;;;;5035290;28;19925;-73
2022/11/06 13:15:27;;;;;;;;;;;7.20;99.90;;;;;;5022551;28;19964;-73
2022/11/06 13:17:58;;;;;;;;;;;7.20;99.90;;;;;;5024306;28;19932;-73
2022/11/06 13:20:29;;;;;;;;;;;7.20;99.90;;;;;;5038584;28;19929;-73
2022/11/06 13:22:59;;;;;;;;;;;7.20;99.90;;;;;;5021580;28;20020;-73
2022/11/06 13:25:31;;;;;;;;;;;7.20;99.90;;;;;;5036418;28;20398;-73
2022/11/06 13:28:00;;;;;;;;;;;7.20;99.90;;;;;;5020773;28;19934;-73
2022/11/06 13:30:28;;;;;;;;;;;7.20;99.90;;;;;;5013401;28;19925;-73
2022/11/06 13:33:04;;;;;;;;;;;7.20;99.90;;;;;;5015638;28;20384;-73
2022/11/06 13:35:32;;;;;;;;;;;7.20;99.90;;;;;;5012010;28;19925;-73
2022/11/06 13:38:00;;;;;;;;;;;7.30;99.90;;;;;;5015981;28;19929;-73
2022/11/06 13:40:29;;;;;;;;;;;7.30;99.90;;;;;;5013859;28;20028;-73
2022/11/06 13:42:59;;;;;;;;;;;7.30;99.90;;;;;;5013295;28;19955;-72
2022/11/06 13:45:27;;;;;;;;;;;7.30;99.90;;;;;;5015242;28;20386;-72
2022/11/06 13:48:05;;;;;;;;;;;7.30;99.90;;;;;;5020845;28;20318;-73
2022/11/06 13:50:34;;;;;;;;;;;7.30;99.90;;;;;;5015390;28;19930;-73
2022/11/06 13:53:06;;;;;;;;;;;7.30;99.90;;;;;;5013819;28;19978;-73
2022/11/06 13:55:40;;;;;;;;;;;7.40;99.90;;;;;;4999741;28;19926;-72
2022/11/06 13:58:21;;;;;;;;;;;7.40;99.90;;;;;;5012866;28;20044;-71
2022/11/06 14:00:55;;;;;;;;;;;7.40;99.90;;;;;;5031135;28;20259;-72
2022/11/06 14:03:40;;;;;;;;;;;7.40;99.90;;;;;;5018174;28;19933;-84
2022/11/06 14:06:09;;;;;;;;;;;7.40;99.90;;;;;;5039225;28;19929;-89
2022/11/06 14:08:41;;;;;;;;;;;7.40;99.90;;;;;;5017477;28;20342;-75
2022/11/06 14:11:17;;;;;;;;;;;7.40;99.90;;;;;;5020930;28;20399;-82
2022/11/06 14:13:56;;;;;;;;;;;7.40;99.90;;;;;;5022919;28;20391;-76
2022/11/06 14:16:28;;;;;;;;;;;7.40;99.90;;;;;;5011919;28;19926;-76
2022/11/06 14:19:02;;;;;;;;;;;7.40;99.90;;;;;;5013765;28;19936;-76
2022/11/06 14:21:50;;;;;;;;;;;7.50;99.90;;;;;;5013666;28;19932;-78
2022/11/06 14:24:29;;;;;;;;;;;7.50;99.90;;;;;;5033729;28;19929;-76
2022/11/06 14:26:57;;;;;;;;;;;7.50;99.90;;;;;;5014268;28;19933;-71
2022/11/06 14:29:55;;;;;;;;;;;7.50;99.90;;;;;;5010786;28;20195;-71
2022/11/06 14:32:33;;;;;;;;;;;7.50;99.90;;;;;;5011485;28;19984;-71
2022/11/06 14:35:30;;;;;;;;;;;7.50;99.90;;;;;;5011622;28;19984;-70
2022/11/06 14:38:10;;;;;;;;;;;7.50;99.90;;;;;;5010647;28;20529;-71
2022/11/06 14:40:39;;;;;;;;;;;7.50;99.90;;;;;;5011810;28;19936;-71
2022/11/06 14:43:14;;;;;;;;;;;7.50;99.90;;;;;;5017187;28;19933;-71
2022/11/06 14:45:49;;;;;;;;;;;7.50;99.90;;;;;;4997967;28;19960;-71
2022/11/06 14:48:25;;;;;;;;;;;7.60;99.90;;;;;;5010977;28;20209;-71
2022/11/06 14:50:52;;;;;;;;;;;7.50;99.90;;;;;;5012741;28;19929;-71
2022/11/06 14:53:20;;;;;;;;;;;7.50;99.90;;;;;;5013661;28;19925;-70
2022/11/06 14:55:56;;;;;;;;;;;7.60;99.90;;;;;;5011132;28;19937;-71
2022/11/06 14:58:25;;;;;;;;;;;7.60;99.90;;;;;;5013173;28;19932;-71
2022/11/06 15:00:54;;;;;;;;;;;7.60;99.90;;;;;;5012256;28;19935;-71
2022/11/06 15:03:24;;;;;;;;;;;7.60;99.90;;;;;;5008326;28;19925;-71
2022/11/06 15:05:53;;;;;;;;;;;7.60;99.90;;;;;;5015235;28;20563;-70
2022/11/06 15:08:41;;;;;;;;;;;7.60;99.90;;;;;;5018714;28;19925;-70
2022/11/06 15:11:09;;;;;;;;;;;7.60;99.90;;;;;;5016623;28;20783;-71
2022/11/06 15:13:36;;;;;;;;;;;7.60;99.90;;;;;;5007940;28;20023;-71
2022/11/06 15:16:06;;;;;;;;;;;7.60;99.90;;;;;;5012417;28;19979;-71
2022/11/06 15:18:35;;;;;;;;;;;7.60;99.90;;;;;;5169296;22;19971;-73
2022/11/06 15:21:04;;;;;;;;;;;7.70;99.90;;;;;;5030697;28;19933;-73
2022/11/06 15:23:33;;;;;;;;;;;7.60;99.90;;;;;;5028408;28;19925;-72